To NAV CANADA Home Page Login to a new session Search on AWWS site Disclaimer Vers la page française équivalente Tips FAQ What's new on the site To the Forecasts and Observations / NOTAM section To "File a Flight Plan" website Publications and other links Update of the User's profile FIC Telephone Numbers My Weather Data Folder Route Weather Data Regional Weather Data Local Weather Data To the Forecasts and Observations / NOTAM section
Request Generated 04/25/2019 at 08:05:20 UTC . Weather information available at that time is displayed.

METAR/TAF

ARVIAT/NU    (show WxCam)

METAR CYEK 250800Z AUTO 35027G34KT 3/4SM -SN BLSN BKN005 M14/M16 A2972 RMK SLP067=
METAR CYEK 250700Z AUTO 35026G33KT 3/4SM -SN BLSN VV005 M13/M14 A2969 RMK PRESRR SLP058=
SPECI CYEK 250626Z AUTO 35029G36KT 1/2SM SN BLSN VV005 M12/M13 A2967 RMK SLP049=
SPECI CYEK 250624Z AUTO 35029G37KT 1/2SM SN BLSN VV004 M12/M13 A2967 RMK SLP049=
SPECI CYEK 250610Z AUTO 35028G35KT 1/2SM SN BLSN VV005 M12/M13 A2966 RMK SLP046=
METAR CYEK 250600Z AUTO 35029G37KT 1/2SM SN BLSN VV004 M12/M14 A2965 RMK SLP043=

TAF CYEK 250538Z 2506/2518 36030G40KT 1/2SM SN BLSN VV004 TEMPO
2506/2509 1SM BLSN OVC010
FM250900 35028G38KT 1/2SM BLSN VV004 TEMPO 2509/2514 2SM BLSN
FEW004
FM251400 34022G32KT P6SM SKC TEMPO 2514/2518 2SM BLSN
RMK FCST BASED ON AUTO OBS. NXT FCST BY 251200Z=
Your time UTC time
Weather data provided by Environment Canada and NAV CANADA